Time;durP1;ratioP1;P1;durP2;ratioP2;P2;SDS_P1;SDS_P2;PMS_P1;PMS_P2;Temp;Humidity;BMP_temperature;BMP_pressure;BME280_temperature;BME280_humidity;BME280_pressure;Samples;Min_cycle;Max_cycle;Signal;HPM_P1;HPM_P2
2022/06/19 00:01:52;;;;;;;13.73;3.17;;;;;;;18.02;61.05;100797.88;5011331;28;20069;-79
2022/06/19 00:04:18;;;;;;;10.80;2.63;;;;;;;17.99;60.78;100798.91;4996489;28;20402;-79
2022/06/19 00:06:43;;;;;;;13.00;2.42;;;;;;;17.96;60.36;100800.91;5004119;28;20585;-79
2022/06/19 00:09:09;;;;;;;11.07;2.53;;;;;;;17.90;60.47;100799.38;5016003;28;20054;-78
2022/06/19 00:11:36;;;;;;;12.98;2.85;;;;;;;17.82;60.43;100788.22;5009812;28;20018;-80
2022/06/19 00:14:03;;;;;;;13.88;3.00;;;;;;;17.77;60.20;100777.72;5011478;28;20050;-79
2022/06/19 00:16:29;;;;;;;10.93;2.67;;;;;;;17.70;60.39;100781.66;5010279;28;20231;-79
2022/06/19 00:18:54;;;;;;;8.18;1.83;;;;;;;17.63;60.56;100786.50;5011504;28;20026;-78
2022/06/19 00:21:20;;;;;;;16.02;2.83;;;;;;;17.58;60.81;100793.91;5009830;28;20355;-79
2022/06/19 00:23:45;;;;;;;16.35;3.60;;;;;;;17.52;60.62;100791.53;5010288;28;20037;-79
2022/06/19 00:26:12;;;;;;;10.95;2.80;;;;;;;17.46;60.63;100793.63;5009971;28;20065;-79
2022/06/19 00:28:37;;;;;;;11.95;3.53;;;;;;;17.37;60.66;100797.66;5011218;28;20121;-79
2022/06/19 00:31:03;;;;;;;10.18;2.83;;;;;;;17.33;60.71;100814.81;5026463;28;20128;-79
2022/06/19 00:33:28;;;;;;;16.02;3.33;;;;;;;17.28;60.40;100819.53;5009202;28;20034;-78
2022/06/19 00:35:54;;;;;;;14.23;2.78;;;;;;;17.25;59.81;100812.53;5010057;28;20053;-78
2022/06/19 00:38:20;;;;;;;18.63;2.83;;;;;;;17.20;59.53;100812.75;5011005;28;20042;-78
2022/06/19 00:40:45;;;;;;;12.68;2.60;;;;;;;17.11;58.76;100802.53;5026164;28;20041;-79
2022/06/19 00:43:10;;;;;;;11.35;2.95;;;;;;;17.01;59.00;100797.69;5009789;28;20065;-79
2022/06/19 00:45:50;;;;;;;13.05;2.72;;;;;;;16.93;59.41;100801.59;4993666;28;20382;-79
2022/06/19 00:48:21;;;;;;;14.55;3.45;;;;;;;16.88;58.88;100810.81;5011137;28;20048;-78
2022/06/19 00:50:49;;;;;;;13.25;2.60;;;;;;;16.77;58.86;100806.81;5011013;28;20068;-78
2022/06/19 00:53:20;;;;;;;14.98;2.90;;;;;;;16.75;58.84;100811.38;4998630;28;20045;-79
2022/06/19 00:55:49;;;;;;;13.98;3.13;;;;;;;16.72;58.65;100800.81;4995268;28;20036;-79
2022/06/19 00:58:18;;;;;;;14.23;3.03;;;;;;;16.70;58.92;100815.22;5011025;28;20079;-79
2022/06/19 01:00:47;;;;;;;14.52;2.65;;;;;;;16.63;59.17;100800.41;5006576;28;20458;-78
2022/06/19 01:03:25;;;;;;;15.23;2.92;;;;;;;16.67;59.04;100793.97;5010453;28;20107;-78
2022/06/19 01:05:50;;;;;;;12.13;2.78;;;;;;;16.65;59.37;100790.50;5009498;28;20388;-79
2022/06/19 01:08:16;;;;;;;12.45;3.20;;;;;;;16.64;59.36;100792.31;5010994;28;20096;-78
2022/06/19 01:10:47;;;;;;;10.77;2.85;;;;;;;16.64;59.58;100794.09;4990265;28;20389;-78
2022/06/19 01:13:15;;;;;;;11.05;2.75;;;;;;;16.62;59.53;100812.91;5027780;28;20025;-78
2022/06/19 01:15:40;;;;;;;13.98;3.17;;;;;;;16.61;59.21;100851.25;5001517;28;20054;-78
2022/06/19 01:18:08;;;;;;;9.63;2.53;;;;;;;16.54;58.98;100949.59;5020626;28;20513;-79
2022/06/19 01:20:35;;;;;;;9.63;2.92;;;;;;;16.46;58.91;101002.53;5009418;28;20046;-78
2022/06/19 01:23:10;;;;;;;12.35;3.05;;;;;;;16.41;58.58;100940.38;4994148;28;20027;-78
2022/06/19 01:25:38;;;;;;;12.95;2.50;;;;;;;16.33;57.44;100867.72;5014665;28;20482;-79
2022/06/19 01:31:14;;;;;;;11.77;2.63;;;;;;;16.19;56.63;100945.78;5012145;28;20038;-77
2022/06/19 01:33:50;;;;;;;12.27;2.70;;;;;;;16.10;56.99;100915.03;5043503;28;20072;-78
2022/06/19 01:36:19;;;;;;;13.57;2.47;;;;;;;16.03;56.83;100875.28;5014269;28;20033;-78
2022/06/19 01:38:49;;;;;;;13.20;2.83;;;;;;;15.95;56.92;100894.31;5013015;28;20532;-78
2022/06/19 01:41:19;;;;;;;10.82;2.85;;;;;;;15.90;57.09;100928.38;5029366;28;20525;-78
2022/06/19 01:43:46;;;;;;;11.93;2.85;;;;;;;15.85;56.52;100933.03;5014307;28;20042;-78
2022/06/19 01:46:14;;;;;;;15.98;2.80;;;;;;;15.79;56.17;100920.81;5029374;28;20042;-78
2022/06/19 01:48:41;;;;;;;14.70;3.35;;;;;;;15.73;55.82;100934.44;4993082;28;20026;-77
2022/06/19 01:51:07;;;;;;;15.38;3.55;;;;;;;15.66;55.43;100923.09;5004593;28;20092;-79
2022/06/19 01:53:51;;;;;;;12.15;3.03;;;;;;;15.62;55.61;100902.78;5012677;28;20037;-78
2022/06/19 01:56:17;;;;;;;13.80;2.78;;;;;;;15.56;55.43;100921.75;5014026;28;20046;-78
2022/06/19 01:58:47;;;;;;;20.67;3.33;;;;;;;15.50;55.14;100924.66;5013907;28;20028;-78
2022/06/19 02:01:14;;;;;;;15.10;3.38;;;;;;;15.50;54.56;100913.97;5013684;28;20096;-78
2022/06/19 02:03:52;;;;;;;16.35;2.97;;;;;;;15.48;54.15;100927.41;5012542;28;20042;-78
2022/06/19 02:06:23;;;;;;;11.30;3.28;;;;;;;15.42;53.83;100930.28;5012557;28;20042;-78
2022/06/19 02:08:50;;;;;;;12.38;3.00;;;;;;;15.39;53.79;100922.44;5012339;28;20400;-78
2022/06/19 02:11:17;;;;;;;15.85;2.65;;;;;;;15.41;53.86;100938.38;5009285;28;20021;-78
2022/06/19 02:13:44;;;;;;;17.48;3.25;;;;;;;15.36;53.78;100943.91;5007732;28;20292;-78
2022/06/19 02:16:13;;;;;;;12.18;2.63;;;;;;;15.34;53.72;100919.06;4992846;28;20334;-79
2022/06/19 02:18:43;;;;;;;12.65;2.70;;;;;;;15.34;54.08;100921.75;5005114;28;20076;-78
2022/06/19 02:21:14;;;;;;;13.85;2.83;;;;;;;15.33;53.78;100930.69;5012112;28;20478;-78
2022/06/19 02:23:40;;;;;;;;;;;;;;;15.44;53.77;100935.59;5012575;28;20038;-78
2022/06/19 02:26:12;;;;;;;13.13;2.30;;;;;;;15.32;53.45;100923.59;5028451;28;19918;-78
2022/06/19 02:28:41;;;;;;;12.90;2.50;;;;;;;15.34;53.19;100916.41;5013416;28;20411;-78
2022/06/19 02:31:07;;;;;;;18.80;3.25;;;;;;;15.30;52.55;100925.47;5013349;28;20021;-79
2022/06/19 02:33:38;;;;;;;11.13;2.15;;;;;;;15.25;51.95;100940.78;5010231;28;20045;-79
2022/06/19 02:36:32;;;;;;;13.35;2.65;;;;;;;15.26;52.43;100948.75;5013141;28;20095;-78
2022/06/19 02:39:00;;;;;;;7.50;2.03;;;;;;;15.29;52.47;100938.88;5025205;28;20441;-78
2022/06/19 02:41:32;;;;;;;9.88;2.22;;;;;;;15.33;52.24;100956.47;5013179;28;20260;-78
2022/06/19 02:44:00;;;;;;;11.30;2.50;;;;;;;15.33;52.20;100949.38;5013024;28;20026;-78
2022/06/19 02:46:25;;;;;;;14.40;2.42;;;;;;;15.32;52.40;100939.59;5013236;28;20057;-78
2022/06/19 02:48:51;;;;;;;14.70;2.40;;;;;;;15.33;52.48;100929.78;5011509;28;20057;-78
2022/06/19 02:51:16;;;;;;;15.00;2.50;;;;;;;15.30;52.72;100922.78;5011593;28;20180;-78
2022/06/19 02:53:42;;;;;;;13.57;2.33;;;;;;;15.26;52.47;100926.53;5026473;28;20495;-84
2022/06/19 02:56:07;;;;;;;10.77;2.72;;;;;;;15.22;52.70;100931.09;5000877;28;20033;-83
2022/06/19 02:58:32;;;;;;;9.90;1.92;;;;;;;15.19;52.60;100947.25;5011354;28;20042;-84
2022/06/19 03:00:58;;;;;;;11.20;2.63;;;;;;;15.18;53.04;101016.63;5044215;28;20053;-84
2022/06/19 03:03:28;;;;;;;12.07;2.17;;;;;;;15.16;52.69;101066.53;5012789;28;20073;-84
2022/06/19 03:05:54;;;;;;;15.27;2.60;;;;;;;15.13;52.73;101048.81;5012734;28;20153;-84
2022/06/19 03:08:20;;;;;;;13.70;2.10;;;;;;;15.12;52.42;101019.56;4995178;28;20128;-83
2022/06/19 03:10:45;;;;;;;6.07;1.83;;;;;;;15.08;52.06;100981.44;5012989;28;20077;-83
2022/06/19 03:13:17;;;;;;;8.88;1.95;;;;;;;15.06;51.25;100972.66;5012482;28;20056;-84
2022/06/19 03:15:42;;;;;;;9.95;1.90;;;;;;;15.03;50.94;100975.41;5012484;28;20030;-84
2022/06/19 03:18:08;;;;;;;9.15;2.10;;;;;;;15.01;50.46;100972.84;4994975;28;20528;-84
2022/06/19 03:20:33;;;;;;;11.23;2.38;;;;;;;14.95;50.55;100943.72;5012636;28;20030;-83
2022/06/19 03:22:58;;;;;;;5.15;1.40;;;;;;;14.92;50.15;100932.31;5012503;28;20115;-84
2022/06/19 03:25:24;;;;;;;7.03;1.58;;;;;;;14.90;50.09;100915.50;5012253;28;20552;-84
2022/06/19 03:27:49;;;;;;;5.95;1.65;;;;;;;14.86;50.47;100928.09;5010990;28;20470;-84
2022/06/19 03:30:17;;;;;;;7.22;1.60;;;;;;;14.84;50.57;100954.81;5027501;28;20179;-83
2022/06/19 03:32:43;;;;;;;5.68;1.38;;;;;;;14.84;50.57;100975.28;5010052;28;20029;-83
2022/06/19 03:35:10;;;;;;;8.25;1.88;;;;;;;14.81;50.89;100952.25;5027410;28;20092;-84
2022/06/19 03:37:36;;;;;;;12.80;1.95;;;;;;;14.82;51.22;100926.47;5010896;28;20065;-85
2022/06/19 03:40:02;;;;;;;6.88;1.52;;;;;;;14.81;50.82;100903.38;5010853;28;20033;-85
2022/06/19 03:42:27;;;;;;;8.45;1.73;;;;;;;14.76;50.67;100889.34;5012258;28;20132;-86
2022/06/19 03:44:52;;;;;;;10.45;1.75;;;;;;;14.74;50.62;100891.25;4994350;28;20128;-84
2022/06/19 03:47:22;;;;;;;16.40;2.35;;;;;;;14.72;50.58;100843.31;4991401;28;20046;-85
2022/06/19 03:49:48;;;;;;;5.53;1.40;;;;;;;14.73;51.08;100862.81;4994302;28;20033;-84
2022/06/19 03:52:13;;;;;;;8.95;1.48;;;;;;;14.72;49.60;100901.09;5012068;28;20080;-86
2022/06/19 03:54:39;;;;;;;6.80;1.52;;;;;;;14.70;50.53;100969.56;4994350;28;20049;-84
2022/06/19 03:57:05;;;;;;;6.57;1.75;;;;;;;14.74;49.15;100997.88;5010683;28;20050;-83
2022/06/19 03:59:31;;;;;;;6.38;1.35;;;;;;;14.73;48.99;100956.13;5010535;28;20432;-85
2022/06/19 04:01:56;;;;;;;6.18;2.05;;;;;;;14.73;48.86;100969.44;5026628;28;20054;-84
2022/06/19 04:04:22;;;;;;;7.72;1.48;;;;;;;14.74;48.91;100947.22;5010788;28;20060;-86
2022/06/19 04:06:47;;;;;;;8.43;1.63;;;;;;;14.72;48.55;100887.75;4977930;28;20379;-84
2022/06/19 04:09:17;;;;;;;8.15;1.58;;;;;;;14.71;48.59;100870.00;4990780;28;20058;-85
2022/06/19 04:11:44;;;;;;;13.20;2.07;;;;;;;14.68;48.51;100862.13;5006126;28;20022;-85
2022/06/19 04:14:11;;;;;;;7.75;1.83;;;;;;;14.65;48.87;100840.94;5011837;28;20412;-86
2022/06/19 04:16:37;;;;;;;15.38;2.08;;;;;;;14.67;49.35;100823.09;5043339;28;20041;-85
2022/06/19 04:19:05;;;;;;;12.80;1.80;;;;;;;14.65;49.82;100800.97;5011643;28;20129;-87
2022/06/19 04:21:33;;;;;;;12.50;1.95;;;;;;;14.64;49.87;100778.78;5010257;28;20046;-86
2022/06/19 04:24:03;;;;;;;8.00;1.98;;;;;;;14.69;50.25;100759.91;5011481;28;20040;-86
2022/06/19 04:26:31;;;;;;;9.85;1.75;;;;;;;14.68;51.02;100740.38;5011505;28;20187;-87
2022/06/19 04:28:57;;;;;;;10.68;2.25;;;;;;;14.69;51.37;100739.47;5011313;28;20065;-86
2022/06/19 04:31:23;;;;;;;14.13;1.77;;;;;;;14.73;51.67;100729.53;5011464;28;20037;-86
2022/06/19 04:33:50;;;;;;;7.53;1.88;;;;;;;14.77;52.03;100741.84;5009387;28;20393;-85
2022/06/19 04:36:18;;;;;;;13.38;2.53;;;;;;;14.80;52.23;100736.38;5009850;28;20042;-86
2022/06/19 04:38:46;;;;;;;10.80;2.20;;;;;;;14.82;52.60;100747.84;5009992;28;20466;-86
2022/06/19 04:41:20;;;;;;;9.50;1.92;;;;;;;14.88;52.59;100736.91;5010143;28;20362;-85
2022/06/19 04:43:47;;;;;;;10.63;2.67;;;;;;;14.95;52.56;100742.88;5010038;28;20033;-86
2022/06/19 04:46:12;;;;;;;9.52;1.92;;;;;;;14.98;53.02;100748.06;5010060;28;20054;-86
2022/06/19 04:48:39;;;;;;;6.72;1.75;;;;;;;15.02;52.96;100745.22;4993492;28;20045;-87
2022/06/19 04:51:06;;;;;;;11.65;1.48;;;;;;;15.08;53.45;100727.22;5011090;28;20393;-85
2022/06/19 04:53:34;;;;;;;10.40;2.22;;;;;;;15.10;53.25;100677.34;5010153;28;20071;-86
2022/06/19 04:56:01;;;;;;;9.57;2.17;;;;;;;15.10;53.29;100664.00;5010330;28;20030;-85
2022/06/19 04:58:27;;;;;;;11.20;1.98;;;;;;;15.13;53.56;100696.72;4997334;28;20037;-86
2022/06/19 05:00:53;;;;;;;7.57;1.90;;;;;;;15.17;53.02;100702.81;5014888;28;20401;-84
2022/06/19 05:03:20;;;;;;;12.73;2.10;;;;;;;15.22;53.28;100723.03;5013538;28;20033;-85
2022/06/19 05:05:46;;;;;;;10.50;2.67;;;;;;;15.29;53.06;100728.97;5030303;28;20026;-85
2022/06/19 05:08:12;;;;;;;9.10;2.10;;;;;;;15.33;53.07;100745.69;5013783;28;20053;-86
2022/06/19 05:10:39;;;;;;;13.75;2.30;;;;;;;15.39;53.07;100738.31;4977961;28;20034;-86
2022/06/19 05:13:06;;;;;;;7.85;1.90;;;;;;;15.47;52.74;100745.97;5038476;28;20046;-85
2022/06/19 05:15:35;;;;;;;10.75;2.15;;;;;;;15.52;53.04;100746.63;5013663;28;20026;-86
2022/06/19 05:18:01;;;;;;;8.57;2.05;;;;;;;15.63;53.00;100772.88;5014850;28;20045;-86
2022/06/19 05:20:26;;;;;;;11.85;2.50;;;;;;;15.66;52.78;100807.44;5014849;28;20084;-86
2022/06/19 05:22:52;;;;;;;11.40;2.17;;;;;;;15.71;52.29;100802.81;5013614;28;20084;-85
2022/06/19 05:25:17;;;;;;;11.07;2.13;;;;;;;15.82;52.43;100799.66;4997007;28;20030;-86
2022/06/19 05:27:43;;;;;;;10.43;2.05;;;;;;;15.94;51.78;100803.56;4997286;28;20129;-86
2022/06/19 05:30:12;;;;;;;10.82;1.73;;;;;;;16.00;51.72;100824.66;4997173;28;20405;-86
2022/06/19 05:32:41;;;;;;;8.63;1.92;;;;;;;16.04;52.12;100866.34;5011678;28;20477;-86
2022/06/19 05:35:07;;;;;;;10.43;1.88;;;;;;;16.09;52.22;100883.88;4993629;28;20035;-86
2022/06/19 05:37:33;;;;;;;11.27;2.25;;;;;;;16.18;51.94;100881.75;5011894;28;20034;-86
2022/06/19 05:39:58;;;;;;;12.65;2.13;;;;;;;16.24;51.48;100893.03;5013278;28;20365;-86
2022/06/19 05:42:24;;;;;;;14.93;2.45;;;;;;;16.32;51.85;100901.59;4993821;28;20074;-84
2022/06/19 05:44:49;;;;;;;8.27;1.90;;;;;;;16.46;51.84;100903.63;5010201;28;20544;-85
2022/06/19 05:47:15;;;;;;;10.98;2.08;;;;;;;16.63;51.30;100896.66;5013226;28;20033;-85
2022/06/19 05:49:41;;;;;;;6.13;1.60;;;;;;;16.77;51.04;100895.06;5014640;28;20050;-85
2022/06/19 05:52:16;;;;;;;12.13;1.98;;;;;;;16.86;51.14;100893.78;5013220;28;20034;-85
2022/06/19 05:54:42;;;;;;;9.90;2.45;;;;;;;16.89;50.64;100899.00;5014330;28;20408;-85
2022/06/19 05:57:08;;;;;;;6.80;1.83;;;;;;;16.93;50.70;100913.94;5012691;28;20121;-84
2022/06/19 05:59:33;;;;;;;8.80;2.30;;;;;;;16.90;50.65;100919.47;5012987;28;20129;-84
2022/06/19 06:01:59;;;;;;;10.88;2.42;;;;;;;16.85;50.91;100909.91;5013668;28;20049;-84
2022/06/19 06:04:24;;;;;;;10.20;2.22;;;;;;;16.80;50.71;100925.31;5012892;28;20037;-84
2022/06/19 06:06:50;;;;;;;6.90;1.92;;;;;;;16.81;51.31;100937.75;4994768;28;20068;-85
2022/06/19 06:09:15;;;;;;;9.82;2.28;;;;;;;16.84;51.28;100959.88;5012918;28;20073;-84
2022/06/19 06:11:41;;;;;;;12.95;2.25;;;;;;;16.82;51.12;100976.94;4992908;28;20022;-83
2022/06/19 06:14:06;;;;;;;11.13;1.98;;;;;;;16.86;50.79;100965.13;5012489;28;20038;-84
2022/06/19 06:16:32;;;;;;;13.77;2.25;;;;;;;16.98;51.20;100959.22;5012435;28;20458;-84
2022/06/19 06:18:57;;;;;;;10.48;2.20;;;;;;;17.16;51.22;100965.50;5012410;28;20482;-85
2022/06/19 06:21:24;;;;;;;8.93;2.40;;;;;;;17.28;50.44;100977.44;5012394;28;20041;-84
2022/06/19 06:23:51;;;;;;;14.70;2.40;;;;;;;17.26;50.09;101015.00;5012238;28;20144;-84
2022/06/19 06:26:23;;;;;;;15.95;2.50;;;;;;;17.15;50.52;101049.41;5013756;28;20049;-85
2022/06/19 06:28:50;;;;;;;9.82;2.50;;;;;;;17.12;49.50;101054.91;5013434;28;20041;-84
2022/06/19 06:31:17;;;;;;;6.47;1.77;;;;;;;17.08;49.37;101075.56;5012258;28;20034;-84
2022/06/19 06:33:43;;;;;;;8.32;2.03;;;;;;;17.02;48.65;101072.31;4995136;28;20056;-84
2022/06/19 06:36:09;;;;;;;9.13;2.10;;;;;;;16.96;49.06;101076.13;5028383;28;20041;-85
2022/06/19 06:38:35;;;;;;;8.18;2.13;;;;;;;16.87;48.46;101081.91;5013453;28;20404;-84
2022/06/19 06:41:03;;;;;;;5.38;1.70;;;;;;;16.80;48.25;101107.19;5013356;28;20022;-84
2022/06/19 06:43:29;;;;;;;5.53;1.60;;;;;;;16.68;48.10;101157.53;4995468;28;20505;-84
2022/06/19 06:46:10;;;;;;;8.15;2.60;;;;;;;16.58;48.62;101209.66;5028830;28;20042;-84
2022/06/19 06:48:36;;;;;;;;;;;;;;;16.63;48.64;101182.72;5012364;28;20512;-84
2022/06/19 06:51:13;;;;;;;10.90;1.70;;;;;;;16.43;49.55;101188.91;5011944;28;19921;-84
2022/06/19 06:53:39;;;;;;;11.40;2.08;;;;;;;16.24;51.94;101186.09;5013002;28;20511;-83
2022/06/19 06:56:05;;;;;;;9.30;1.92;;;;;;;16.06;54.29;101183.22;5011785;28;20160;-81
2022/06/19 06:58:31;;;;;;;11.20;2.00;;;;;;;15.81;57.41;101198.47;5011734;28;20370;-82
2022/06/19 07:00:57;;;;;;;10.82;2.35;;;;;;;15.61;57.84;101186.69;5012963;28;20045;-82
2022/06/19 07:03:22;;;;;;;14.27;2.00;;;;;;;15.55;59.26;101186.03;4995050;28;20056;-82
2022/06/19 07:05:48;;;;;;;11.95;1.88;;;;;;;15.51;60.03;101193.31;5011845;28;20120;-82
2022/06/19 07:08:14;;;;;;;9.73;1.77;;;;;;;15.46;60.78;101171.25;5012868;28;20048;-83
2022/06/19 07:10:39;;;;;;;9.80;1.83;;;;;;;15.42;61.97;101183.81;5011375;28;20449;-82
2022/06/19 07:13:05;;;;;;;11.52;2.22;;;;;;;15.44;61.98;101175.78;4995116;28;20121;-83
2022/06/19 07:15:32;;;;;;;15.07;2.50;;;;;;;15.37;62.17;101176.91;5011446;28;20121;-83
2022/06/19 07:17:58;;;;;;;12.18;2.83;;;;;;;15.35;63.45;101194.78;5012857;28;20033;-83
2022/06/19 07:20:24;;;;;;;7.18;2.20;;;;;;;15.34;63.21;101190.38;5010742;28;20030;-83
2022/06/19 07:22:49;;;;;;;10.10;2.03;;;;;;;15.32;63.82;101198.44;5011425;28;20046;-83
2022/06/19 07:25:18;;;;;;;10.02;2.15;;;;;;;15.27;63.84;101230.59;5011375;28;20100;-83
2022/06/19 07:27:44;;;;;;;8.90;2.17;;;;;;;15.23;65.00;101247.66;5011227;28;20026;-83
2022/06/19 07:30:15;;;;;;;10.70;2.10;;;;;;;15.20;65.64;101244.22;4995087;28;20033;-83
2022/06/19 07:32:40;;;;;;;;;;;;;;;15.24;65.29;101227.19;5010763;28;20343;-84
2022/06/19 07:35:06;;;;;;;11.90;2.00;;;;;;;15.10;66.80;101176.97;5012389;28;19924;-83
2022/06/19 07:37:31;;;;;;;11.82;2.85;;;;;;;15.05;68.60;101129.13;4977646;28;20405;-83
2022/06/19 07:39:57;;;;;;;10.40;2.50;;;;;;;15.01;68.71;101129.31;5012315;28;20044;-84
2022/06/19 07:42:22;;;;;;;10.00;2.40;;;;;;;14.98;70.21;101103.59;5011027;28;20034;-83
2022/06/19 07:44:48;;;;;;;19.23;2.42;;;;;;;14.93;70.36;101038.91;5010797;28;20800;-82
2022/06/19 07:50:10;;;;;;;11.32;2.55;;;;;;;14.81;72.70;101007.34;5026745;28;20424;-82
2022/06/19 07:52:40;;;;;;;15.05;3.10;;;;;;;14.75;72.50;101023.59;5003071;28;20037;-83
2022/06/19 07:55:07;;;;;;;17.13;3.15;;;;;;;14.73;74.30;101012.97;5011948;28;20048;-82
2022/06/19 07:57:33;;;;;;;16.75;3.35;;;;;;;14.73;73.76;101010.28;5010796;28;20384;-83
2022/06/19 07:59:59;;;;;;;10.80;2.95;;;;;;;14.77;74.80;101005.75;5010581;28;20124;-82
2022/06/19 08:02:24;;;;;;;17.08;3.00;;;;;;;14.83;74.29;101051.69;5026982;28;20069;-83
2022/06/19 08:04:51;;;;;;;13.95;3.67;;;;;;;14.89;74.42;101103.94;5011812;28;20048;-83
2022/06/19 08:07:17;;;;;;;17.33;3.38;;;;;;;14.95;73.86;101145.50;5012158;28;20040;-83
2022/06/19 08:09:43;;;;;;;15.27;2.85;;;;;;;14.97;72.95;101152.53;4994548;28;20045;-83
2022/06/19 08:12:09;;;;;;;14.48;3.00;;;;;;;15.01;75.63;101142.66;4971368;28;20370;-84
2022/06/19 08:14:35;;;;;;;16.15;3.10;;;;;;;15.14;76.11;101124.41;5011997;28;20034;-83
2022/06/19 08:17:00;;;;;;;20.70;3.35;;;;;;;15.13;73.56;101130.66;5011950;28;20577;-84
2022/06/19 08:19:26;;;;;;;20.27;3.30;;;;;;;15.17;73.01;101153.63;4994058;28;20057;-85
2022/06/19 08:21:51;;;;;;;14.43;2.90;;;;;;;15.13;72.91;101131.50;5010283;28;20628;-85
2022/06/19 08:24:17;;;;;;;13.13;2.85;;;;;;;15.17;75.94;101073.59;5010335;28;20111;-85
2022/06/19 08:26:43;;;;;;;21.20;3.47;;;;;;;15.16;75.63;101088.75;4993848;28;20461;-85
2022/06/19 08:29:09;;;;;;;12.10;2.78;;;;;;;15.16;75.03;101154.56;5010354;28;20678;-83
2022/06/19 08:31:35;;;;;;;13.82;3.22;;;;;;;15.19;77.48;101133.09;5009149;28;20117;-84
2022/06/19 08:34:01;;;;;;;20.13;3.47;;;;;;;15.31;78.41;101092.63;4976391;28;20481;-84
2022/06/19 08:36:27;;;;;;;10.20;2.88;;;;;;;15.35;78.05;101104.06;5011328;28;20454;-84
2022/06/19 08:38:57;;;;;;;11.88;3.08;;;;;;;15.38;76.92;101115.50;5009862;28;20045;-84
2022/06/19 08:41:28;;;;;;;17.55;3.22;;;;;;;15.50;78.27;101092.78;5009799;28;20041;-84
2022/06/19 08:44:09;;;;;;;15.10;3.10;;;;;;;15.57;77.72;101072.06;5010047;28;20037;-84
2022/06/19 08:46:56;;;;;;;17.77;3.20;;;;;;;15.54;76.04;101065.06;5009906;28;20453;-85
2022/06/19 08:49:55;;;;;;;9.98;2.72;;;;;;;15.52;76.39;101036.69;5011284;28;20026;-85
2022/06/19 08:52:30;;;;;;;11.18;2.95;;;;;;;15.52;75.59;101034.03;5009762;28;20528;-86
2022/06/19 08:55:20;;;;;;;16.23;2.72;;;;;;;15.44;74.18;101037.84;5042952;28;20038;-87
2022/06/19 08:58:09;;;;;;;12.77;2.63;;;;;;;15.41;74.73;101018.44;5009884;28;20042;-86
2022/06/19 09:00:59;;;;;;;16.00;3.28;;;;;;;15.41;74.75;101008.63;4997023;28;20127;-88
2022/06/19 09:07:29;;;;;;;15.77;3.72;;;;;;;15.71;75.76;100995.03;5009613;28;20052;-88
2022/06/19 09:10:11;;;;;;;14.13;2.80;;;;;;;15.98;74.23;101002.84;5020672;28;20046;-86
2022/06/19 09:12:57;;;;;;;12.88;3.17;;;;;;;16.18;72.39;101002.84;5008318;28;20099;-87
2022/06/19 09:15:33;;;;;;;12.65;2.78;;;;;;;16.29;70.10;101010.41;5009547;28;20085;-86
2022/06/19 09:18:05;;;;;;;13.48;3.30;;;;;;;16.52;71.04;101012.97;5009694;28;20126;-85
2022/06/19 09:20:44;;;;;;;15.00;3.42;;;;;;;16.78;69.63;101037.69;5009483;28;20041;-86
2022/06/19 09:23:27;;;;;;;15.35;3.78;;;;;;;17.05;71.52;101072.19;4993446;28;20044;-86
2022/06/19 09:26:03;;;;;;;15.68;3.67;;;;;;;17.30;69.11;101083.50;5042307;28;20034;-88
2022/06/19 09:28:49;;;;;;;12.77;2.60;;;;;;;17.42;66.67;101107.03;5009476;28;20046;-87
2022/06/19 09:31:42;;;;;;;11.98;3.05;;;;;;;17.35;65.14;101112.72;4993336;28;20034;-88
2022/06/19 09:34:20;;;;;;;9.90;2.53;;;;;;;17.37;63.91;101119.75;5008437;28;20044;-87
2022/06/19 09:36:59;;;;;;;7.75;2.40;;;;;;;17.53;64.81;101138.69;5010935;28;20034;-87
2022/06/19 09:39:49;;;;;;;11.20;2.55;;;;;;;17.69;63.18;101124.56;5009459;28;20210;-87
2022/06/19 09:42:35;;;;;;;13.70;2.97;;;;;;;17.91;62.77;101109.25;5010328;28;20042;-87
2022/06/19 09:45:22;;;;;;;11.40;2.90;;;;;;;18.10;60.90;101113.69;4996672;28;20033;-87
2022/06/19 09:48:41;;;;;;;11.32;2.05;;;;;;;18.25;61.91;101105.78;5012949;28;20470;-87
2022/06/19 09:51:07;;;;;;;9.25;2.40;;;;;;;18.43;62.56;101077.16;4956687;28;20122;-88
2022/06/19 09:53:44;;;;;;;13.98;3.10;;;;;;;18.48;59.44;101067.06;4984169;28;20133;-89
2022/06/19 09:56:23;;;;;;;10.02;2.28;;;;;;;18.68;59.42;101058.00;4996697;28;20042;-88
2022/06/19 09:59:14;;;;;;;13.40;3.00;;;;;;;18.82;59.46;101057.31;5013168;28;20033;-88
2022/06/19 10:01:41;;;;;;;;;;;;;;;18.90;60.04;101054.22;5029478;28;20113;-89
2022/06/19 10:04:21;;;;;;;8.00;1.90;;;;;;;19.03;60.04;101043.69;5029515;28;20265;-88
2022/06/19 10:06:54;;;;;;;11.82;2.00;;;;;;;19.07;57.29;101037.22;4994770;28;20035;-89
2022/06/19 10:09:26;;;;;;;12.90;2.38;;;;;;;19.06;56.78;101038.16;5012988;28;20371;-89
2022/06/19 10:11:59;;;;;;;12.55;2.63;;;;;;;18.99;54.94;101032.25;4994483;28;20081;-88
2022/06/19 10:14:34;;;;;;;7.25;2.08;;;;;;;19.25;54.54;101021.91;5012878;28;20034;-88
2022/06/19 10:17:27;;;;;;;8.15;2.08;;;;;;;19.48;53.64;101013.41;4996428;28;20072;-89
2022/06/19 10:20:23;;;;;;;7.22;2.25;;;;;;;19.65;55.52;101007.09;4996409;28;20393;-88
2022/06/19 10:23:17;;;;;;;9.95;2.15;;;;;;;19.73;54.00;101001.31;4984126;28;20034;-88
2022/06/19 10:25:55;;;;;;;7.78;2.10;;;;;;;19.87;52.46;100996.00;5012002;28;20048;-89
2022/06/19 10:28:38;;;;;;;10.63;2.28;;;;;;;20.19;53.69;100985.19;5008772;28;20064;-89
2022/06/19 10:31:36;;;;;;;5.65;1.85;;;;;;;20.49;51.91;100981.59;5008459;28;20031;-89
2022/06/19 10:34:02;;;;;;;6.50;1.83;;;;;;;20.53;48.40;100986.72;5042734;28;20045;-89
2022/06/19 10:37:04;;;;;;;6.70;1.95;;;;;;;20.85;51.61;100983.03;5012307;28;20037;-89
2022/06/19 10:39:39;;;;;;;7.35;1.85;;;;;;;21.15;50.95;100990.97;5043125;28;20064;-88
2022/06/19 10:42:21;;;;;;;5.30;2.30;;;;;;;21.34;48.79;100998.72;5028985;28;20044;-88
2022/06/19 10:45:18;;;;;;;12.00;3.00;;;;;;;21.38;49.62;101008.34;4996008;28;20046;-88
2022/06/19 10:48:02;;;;;;;9.73;2.03;;;;;;;21.41;48.42;100986.63;5012007;28;20033;-88
2022/06/19 10:50:44;;;;;;;8.23;2.03;;;;;;;21.49;47.93;100973.53;4983425;28;20040;-87
2022/06/19 10:53:28;;;;;;;9.50;2.30;;;;;;;21.75;49.08;100979.03;4995257;28;20038;-88
2022/06/19 10:56:09;;;;;;;6.03;1.65;;;;;;;21.78;47.43;101003.06;5011508;28;20072;-87
2022/06/19 10:58:35;;;;;;;4.85;1.60;;;;;;;21.67;45.67;101015.44;5028237;28;20152;-87
2022/06/19 11:01:07;;;;;;;7.40;1.98;;;;;;;21.49;45.55;101027.44;5013068;28;20041;-87
2022/06/19 11:06:33;;;;;;;5.60;1.88;;;;;;;21.29;45.68;101044.84;5011752;28;20390;-87
2022/06/19 11:09:04;;;;;;;8.52;2.47;;;;;;;21.50;49.01;101056.09;5011447;28;20072;-86
2022/06/19 11:11:33;;;;;;;7.15;2.00;;;;;;;21.54;46.78;101056.75;5044427;28;20036;-86
2022/06/19 11:14:12;;;;;;;10.50;2.15;;;;;;;21.65;47.34;101056.94;4993429;28;20030;-87
2022/06/19 11:17:02;;;;;;;8.23;2.08;;;;;;;21.69;47.50;101063.88;5004349;28;20052;-87
2022/06/19 11:19:36;;;;;;;9.85;2.33;;;;;;;21.61;46.49;101058.09;5011610;28;20038;-88
2022/06/19 11:22:05;;;;;;;10.02;2.20;;;;;;;21.60;46.06;101068.00;5012464;28;20092;-87
2022/06/19 11:24:32;;;;;;;10.15;2.78;;;;;;;21.73;47.43;101068.06;5011563;28;20029;-87
2022/06/19 11:26:59;;;;;;;9.32;2.55;;;;;;;21.93;47.54;101082.06;5012531;28;20135;-86
2022/06/19 11:29:27;;;;;;;8.70;2.05;;;;;;;22.03;46.44;101099.38;5012351;28;20505;-88
2022/06/19 11:32:01;;;;;;;7.65;2.35;;;;;;;22.12;47.24;101096.94;5009465;28;20446;-87
2022/06/19 11:34:43;;;;;;;9.20;2.47;;;;;;;22.13;47.84;101097.78;5010549;28;20029;-87
2022/06/19 11:37:13;;;;;;;11.45;2.60;;;;;;;22.22;47.60;101097.22;5012502;28;20042;-87
2022/06/19 11:39:42;;;;;;;10.63;3.33;;;;;;;22.23;47.43;101092.69;5007506;28;20053;-86
2022/06/19 11:42:20;;;;;;;13.13;2.58;;;;;;;22.44;48.81;101090.41;5012557;28;20074;-87
2022/06/19 11:44:54;;;;;;;9.88;3.10;;;;;;;22.68;48.91;101091.44;5011014;28;20034;-87
2022/06/19 11:47:38;;;;;;;9.88;2.67;;;;;;;22.93;48.01;101077.09;5012448;28;20477;-87
2022/06/19 11:50:33;;;;;;;7.18;2.78;;;;;;;23.07;47.23;101072.56;5010710;28;20042;-87